sensor_id;sensor_type;location;lat;lon;timestamp;temperature;humidity
67901;DHT22;54700;51.796;10.956;2023-04-03T00:01:21;0.50;95.20
67901;DHT22;54700;51.796;10.956;2023-04-03T00:03:53;0.50;95.30
67901;DHT22;54700;51.796;10.956;2023-04-03T00:06:21;0.40;95.60
67901;DHT22;54700;51.796;10.956;2023-04-03T00:08:50;0.40;95.50
67901;DHT22;54700;51.796;10.956;2023-04-03T00:11:21;0.40;95.90
67901;DHT22;54700;51.796;10.956;2023-04-03T00:13:51;0.40;95.80
67901;DHT22;54700;51.796;10.956;2023-04-03T00:16:18;0.40;96.00
67901;DHT22;54700;51.796;10.956;2023-04-03T00:18:46;0.40;95.90
67901;DHT22;54700;51.796;10.956;2023-04-03T00:21:13;0.40;96.60
67901;DHT22;54700;51.796;10.956;2023-04-03T00:23:41;0.40;96.60
67901;DHT22;54700;51.796;10.956;2023-04-03T00:26:10;0.40;96.60
67901;DHT22;54700;51.796;10.956;2023-04-03T00:28:42;0.30;96.30
67901;DHT22;54700;51.796;10.956;2023-04-03T00:31:10;0.30;96.30
67901;DHT22;54700;51.796;10.956;2023-04-03T00:33:42;0.30;96.50
67901;DHT22;54700;51.796;10.956;2023-04-03T00:36:10;0.20;96.80
67901;DHT22;54700;51.796;10.956;2023-04-03T00:38:41;0.20;97.00
67901;DHT22;54700;51.796;10.956;2023-04-03T00:41:10;0.20;97.20
67901;DHT22;54700;51.796;10.956;2023-04-03T00:43:44;0.10;97.50
67901;DHT22;54700;51.796;10.956;2023-04-03T00:46:15;0.10;97.80
67901;DHT22;54700;51.796;10.956;2023-04-03T00:48:44;0.10;98.40
67901;DHT22;54700;51.796;10.956;2023-04-03T00:51:16;0.10;98.10
67901;DHT22;54700;51.796;10.956;2023-04-03T00:53:48;0.10;98.30
67901;DHT22;54700;51.796;10.956;2023-04-03T00:56:21;0.10;98.30
67901;DHT22;54700;51.796;10.956;2023-04-03T00:58:53;0.00;98.50
67901;DHT22;54700;51.796;10.956;2023-04-03T01:01:32;0.00;99.00
67901;DHT22;54700;51.796;10.956;2023-04-03T01:03:59;0.10;98.40
67901;DHT22;54700;51.796;10.956;2023-04-03T01:06:28;0.00;98.50
67901;DHT22;54700;51.796;10.956;2023-04-03T01:08:58;0.00;99.00
67901;DHT22;54700;51.796;10.956;2023-04-03T01:11:31;0.00;99.10
67901;DHT22;54700;51.796;10.956;2023-04-03T01:14:05;0.00;99.20
67901;DHT22;54700;51.796;10.956;2023-04-03T01:16:35;0.00;98.60
67901;DHT22;54700;51.796;10.956;2023-04-03T01:19:06;0.00;99.20
67901;DHT22;54700;51.796;10.956;2023-04-03T01:21:43;0.00;99.20
67901;DHT22;54700;51.796;10.956;2023-04-03T01:24:31;0.10;99.60
67901;DHT22;54700;51.796;10.956;2023-04-03T01:27:06;0.10;99.10
67901;DHT22;54700;51.796;10.956;2023-04-03T01:29:38;0.00;99.10
67901;DHT22;54700;51.796;10.956;2023-04-03T01:32:09;0.00;99.90
67901;DHT22;54700;51.796;10.956;2023-04-03T01:34:37;0.00;99.90
67901;DHT22;54700;51.796;10.956;2023-04-03T01:37:04;0.00;99.90
67901;DHT22;54700;51.796;10.956;2023-04-03T01:39:31;0.00;99.90
67901;DHT22;54700;51.796;10.956;2023-04-03T01:41:58;0.00;99.70
67901;DHT22;54700;51.796;10.956;2023-04-03T01:44:26;0.00;99.60
67901;DHT22;54700;51.796;10.956;2023-04-03T01:46:53;-0.10;99.60
67901;DHT22;54700;51.796;10.956;2023-04-03T01:49:24;-0.10;99.70
67901;DHT22;54700;51.796;10.956;2023-04-03T01:51:53;-0.10;99.50
67901;DHT22;54700;51.796;10.956;2023-04-03T01:54:20;-0.10;99.90
67901;DHT22;54700;51.796;10.956;2023-04-03T01:56:47;-0.10;99.90
67901;DHT22;54700;51.796;10.956;2023-04-03T01:59:14;-0.20;99.90
67901;DHT22;54700;51.796;10.956;2023-04-03T02:01:43;-0.20;99.90
67901;DHT22;54700;51.796;10.956;2023-04-03T02:04:15;-0.20;99.90
67901;DHT22;54700;51.796;10.956;2023-04-03T02:06:43;-0.20;99.90
67901;DHT22;54700;51.796;10.956;2023-04-03T02:09:11;-0.20;99.90
67901;DHT22;54700;51.796;10.956;2023-04-03T02:11:38;-0.20;99.90
67901;DHT22;54700;51.796;10.956;2023-04-03T02:14:06;-0.20;99.90
67901;DHT22;54700;51.796;10.956;2023-04-03T02:16:43;-0.20;99.90
67901;DHT22;54700;51.796;10.956;2023-04-03T02:19:12;-0.20;99.90
67901;DHT22;54700;51.796;10.956;2023-04-03T02:21:39;-0.20;99.90
67901;DHT22;54700;51.796;10.956;2023-04-03T02:24:10;-0.20;99.90
67901;DHT22;54700;51.796;10.956;2023-04-03T02:26:38;-0.30;99.90
67901;DHT22;54700;51.796;10.956;2023-04-03T02:29:06;-0.30;99.90
67901;DHT22;54700;51.796;10.956;2023-04-03T02:31:33;-0.30;99.90
67901;DHT22;54700;51.796;10.956;2023-04-03T02:34:01;-0.30;99.90
67901;DHT22;54700;51.796;10.956;2023-04-03T02:36:27;-0.30;99.90
67901;DHT22;54700;51.796;10.956;2023-04-03T02:38:55;-0.30;99.90
67901;DHT22;54700;51.796;10.956;2023-04-03T02:41:26;-0.40;99.90
67901;DHT22;54700;51.796;10.956;2023-04-03T02:44:00;-0.40;99.90
67901;DHT22;54700;51.796;10.956;2023-04-03T02:46:27;-0.40;99.90
67901;DHT22;54700;51.796;10.956;2023-04-03T02:48:56;-0.40;99.90
67901;DHT22;54700;51.796;10.956;2023-04-03T02:51:25;-0.40;99.90
67901;DHT22;54700;51.796;10.956;2023-04-03T02:53:52;-0.40;99.90
67901;DHT22;54700;51.796;10.956;2023-04-03T02:56:22;-0.40;99.90
67901;DHT22;54700;51.796;10.956;2023-04-03T02:58:51;-0.40;99.90
67901;DHT22;54700;51.796;10.956;2023-04-03T03:01:19;-0.50;99.90
67901;DHT22;54700;51.796;10.956;2023-04-03T03:03:47;-0.50;99.90
67901;DHT22;54700;51.796;10.956;2023-04-03T03:06:14;-0.50;99.90
67901;DHT22;54700;51.796;10.956;2023-04-03T03:08:43;-0.50;99.90
67901;DHT22;54700;51.796;10.956;2023-04-03T03:11:10;-0.50;99.90
67901;DHT22;54700;51.796;10.956;2023-04-03T03:13:38;-0.50;99.90
67901;DHT22;54700;51.796;10.956;2023-04-03T03:16:07;-0.50;99.90
67901;DHT22;54700;51.796;10.956;2023-04-03T03:18:34;-0.60;99.90
67901;DHT22;54700;51.796;10.956;2023-04-03T03:21:02;-0.60;99.90
67901;DHT22;54700;51.796;10.956;2023-04-03T03:23:35;-0.60;99.90
67901;DHT22;54700;51.796;10.956;2023-04-03T03:26:03;-0.60;99.90
67901;DHT22;54700;51.796;10.956;2023-04-03T03:28:32;-0.60;99.90
67901;DHT22;54700;51.796;10.956;2023-04-03T03:31:00;-0.60;99.90
67901;DHT22;54700;51.796;10.956;2023-04-03T03:33:30;-0.60;99.90
67901;DHT22;54700;51.796;10.956;2023-04-03T03:36:01;-0.60;99.90
67901;DHT22;54700;51.796;10.956;2023-04-03T03:38:28;-0.60;99.90
67901;DHT22;54700;51.796;10.956;2023-04-03T03:40:55;-0.60;99.90
67901;DHT22;54700;51.796;10.956;2023-04-03T03:43:23;-0.60;99.90
67901;DHT22;54700;51.796;10.956;2023-04-03T03:45:50;-0.60;99.90
67901;DHT22;54700;51.796;10.956;2023-04-03T03:48:22;-0.70;99.90
67901;DHT22;54700;51.796;10.956;2023-04-03T03:50:52;-0.70;99.90
67901;DHT22;54700;51.796;10.956;2023-04-03T03:53:25;-0.70;99.90
67901;DHT22;54700;51.796;10.956;2023-04-03T03:56:04;-0.70;99.90
67901;DHT22;54700;51.796;10.956;2023-04-03T03:58:32;-0.80;99.90
67901;DHT22;54700;51.796;10.956;2023-04-03T04:01:07;-0.80;99.90
67901;DHT22;54700;51.796;10.956;2023-04-03T04:03:37;-0.80;99.90
67901;DHT22;54700;51.796;10.956;2023-04-03T04:06:06;-0.80;99.90
67901;DHT22;54700;51.796;10.956;2023-04-03T04:08:33;-0.90;99.90
67901;DHT22;54700;51.796;10.956;2023-04-03T04:11:05;-0.90;99.90
67901;DHT22;54700;51.796;10.956;2023-04-03T04:13:33;-0.90;99.90
67901;DHT22;54700;51.796;10.956;2023-04-03T04:16:01;-0.90;99.90
67901;DHT22;54700;51.796;10.956;2023-04-03T04:18:28;-0.90;99.90
67901;DHT22;54700;51.796;10.956;2023-04-03T04:20:58;-0.90;99.90
67901;DHT22;54700;51.796;10.956;2023-04-03T04:23:28;-0.90;99.90
67901;DHT22;54700;51.796;10.956;2023-04-03T04:25:55;-0.90;99.90
67901;DHT22;54700;51.796;10.956;2023-04-03T04:28:23;-1.00;99.90
67901;DHT22;54700;51.796;10.956;2023-04-03T04:30:51;-0.90;99.90
67901;DHT22;54700;51.796;10.956;2023-04-03T04:33:18;-1.00;99.90
67901;DHT22;54700;51.796;10.956;2023-04-03T04:35:51;-1.00;99.90
67901;DHT22;54700;51.796;10.956;2023-04-03T04:38:21;-1.00;99.90
67901;DHT22;54700;51.796;10.956;2023-04-03T04:40:51;-1.00;99.90
67901;DHT22;54700;51.796;10.956;2023-04-03T04:43:21;-1.00;99.90
67901;DHT22;54700;51.796;10.956;2023-04-03T04:45:49;-1.00;99.90
67901;DHT22;54700;51.796;10.956;2023-04-03T04:48:34;-1.00;99.90
67901;DHT22;54700;51.796;10.956;2023-04-03T04:51:18;-1.00;99.90
67901;DHT22;54700;51.796;10.956;2023-04-03T04:53:53;-1.00;99.90
67901;DHT22;54700;51.796;10.956;2023-04-03T04:56:42;-1.00;99.90
67901;DHT22;54700;51.796;10.956;2023-04-03T04:59:16;-0.90;99.90
67901;DHT22;54700;51.796;10.956;2023-04-03T05:02:00;-1.00;99.90
67901;DHT22;54700;51.796;10.956;2023-04-03T05:04:43;-0.90;99.90
67901;DHT22;54700;51.796;10.956;2023-04-03T05:07:17;-0.90;99.90
67901;DHT22;54700;51.796;10.956;2023-04-03T05:09:58;-0.90;99.90
67901;DHT22;54700;51.796;10.956;2023-04-03T05:12:52;-0.90;99.90
67901;DHT22;54700;51.796;10.956;2023-04-03T05:15:52;-0.80;99.90
67901;DHT22;54700;51.796;10.956;2023-04-03T05:18:54;-0.80;99.90
67901;DHT22;54700;51.796;10.956;2023-04-03T05:21:35;-0.80;99.90
67901;DHT22;54700;51.796;10.956;2023-04-03T05:24:10;-0.80;99.90
67901;DHT22;54700;51.796;10.956;2023-04-03T05:27:03;-0.70;99.90
67901;DHT22;54700;51.796;10.956;2023-04-03T05:29:59;-0.70;99.90
67901;DHT22;54700;51.796;10.956;2023-04-03T05:32:34;-0.70;99.90
67901;DHT22;54700;51.796;10.956;2023-04-03T05:35:06;-0.70;99.90
67901;DHT22;54700;51.796;10.956;2023-04-03T05:40:29;-0.70;99.90
67901;DHT22;54700;51.796;10.956;2023-04-03T05:43:01;-0.80;99.90
67901;DHT22;54700;51.796;10.956;2023-04-03T05:45:39;-0.80;99.90
67901;DHT22;54700;51.796;10.956;2023-04-03T05:48:09;-0.80;99.90
67901;DHT22;54700;51.796;10.956;2023-04-03T05:50:47;-0.70;99.90
67901;DHT22;54700;51.796;10.956;2023-04-03T05:53:17;-0.70;99.90
67901;DHT22;54700;51.796;10.956;2023-04-03T05:55:53;-0.70;99.90
67901;DHT22;54700;51.796;10.956;2023-04-03T05:58:32;-0.60;99.90
67901;DHT22;54700;51.796;10.956;2023-04-03T06:01:08;-0.60;99.90
67901;DHT22;54700;51.796;10.956;2023-04-03T06:03:37;-0.60;99.90
67901;DHT22;54700;51.796;10.956;2023-04-03T06:06:06;-0.60;99.80
67901;DHT22;54700;51.796;10.956;2023-04-03T06:08:35;-0.60;99.80
67901;DHT22;54700;51.796;10.956;2023-04-03T06:11:04;-0.60;99.30
67901;DHT22;54700;51.796;10.956;2023-04-03T06:13:36;-0.60;99.60
67901;DHT22;54700;51.796;10.956;2023-04-03T06:16:05;-0.50;99.40
67901;DHT22;54700;51.796;10.956;2023-04-03T06:18:40;-0.50;99.10
67901;DHT22;54700;51.796;10.956;2023-04-03T06:21:28;-0.50;98.90
67901;DHT22;54700;51.796;10.956;2023-04-03T06:23:58;-0.50;98.80
67901;DHT22;54700;51.796;10.956;2023-04-03T06:26:31;-0.40;99.40
67901;DHT22;54700;51.796;10.956;2023-04-03T06:29:08;-0.40;98.60
67901;DHT22;54700;51.796;10.956;2023-04-03T06:31:48;-0.40;98.10
67901;DHT22;54700;51.796;10.956;2023-04-03T06:34:21;-0.30;98.50
67901;DHT22;54700;51.796;10.956;2023-04-03T06:36:55;-0.20;98.40
67901;DHT22;54700;51.796;10.956;2023-04-03T06:39:49;-0.20;97.90
67901;DHT22;54700;51.796;10.956;2023-04-03T06:42:17;-0.10;98.10
67901;DHT22;54700;51.796;10.956;2023-04-03T06:44:45;0.00;97.20
67901;DHT22;54700;51.796;10.956;2023-04-03T06:50:20;0.10;96.50
67901;DHT22;54700;51.796;10.956;2023-04-03T06:52:54;0.10;95.70
67901;DHT22;54700;51.796;10.956;2023-04-03T06:55:34;0.20;96.00
67901;DHT22;54700;51.796;10.956;2023-04-03T06:58:09;0.20;96.70
67901;DHT22;54700;51.796;10.956;2023-04-03T07:00:40;0.30;96.50
67901;DHT22;54700;51.796;10.956;2023-04-03T07:03:27;0.50;95.70
67901;DHT22;54700;51.796;10.956;2023-04-03T07:05:57;0.60;94.70
67901;DHT22;54700;51.796;10.956;2023-04-03T07:08:25;0.70;94.10
67901;DHT22;54700;51.796;10.956;2023-04-03T07:10:55;0.80;93.50
67901;DHT22;54700;51.796;10.956;2023-04-03T07:13:23;0.80;93.30
67901;DHT22;54700;51.796;10.956;2023-04-03T07:15:57;0.80;93.40
67901;DHT22;54700;51.796;10.956;2023-04-03T07:18:32;0.90;92.30
67901;DHT22;54700;51.796;10.956;2023-04-03T07:21:07;0.90;92.90
67901;DHT22;54700;51.796;10.956;2023-04-03T07:23:40;1.00;92.40
67901;DHT22;54700;51.796;10.956;2023-04-03T07:26:11;1.00;90.70
67901;DHT22;54700;51.796;10.956;2023-04-03T07:28:46;1.10;90.70
67901;DHT22;54700;51.796;10.956;2023-04-03T07:31:14;1.20;91.50
67901;DHT22;54700;51.796;10.956;2023-04-03T07:33:46;1.30;90.70
67901;DHT22;54700;51.796;10.956;2023-04-03T07:36:15;1.40;89.00
67901;DHT22;54700;51.796;10.956;2023-04-03T07:38:47;1.60;88.40
67901;DHT22;54700;51.796;10.956;2023-04-03T07:41:20;1.70;88.40
67901;DHT22;54700;51.796;10.956;2023-04-03T07:43:59;1.70;86.40
67901;DHT22;54700;51.796;10.956;2023-04-03T07:46:35;1.70;83.90
67901;DHT22;54700;51.796;10.956;2023-04-03T07:49:04;1.70;86.40
67901;DHT22;54700;51.796;10.956;2023-04-03T07:51:46;1.70;88.20
67901;DHT22;54700;51.796;10.956;2023-04-03T07:54:18;1.80;87.50
67901;DHT22;54700;51.796;10.956;2023-04-03T07:56:52;1.80;84.20
67901;DHT22;54700;51.796;10.956;2023-04-03T07:59:23;1.80;83.70
67901;DHT22;54700;51.796;10.956;2023-04-03T08:01:59;1.90;84.30
67901;DHT22;54700;51.796;10.956;2023-04-03T08:04:29;1.80;82.90
67901;DHT22;54700;51.796;10.956;2023-04-03T08:07:01;1.80;85.00
67901;DHT22;54700;51.796;10.956;2023-04-03T08:09:31;1.90;85.00
67901;DHT22;54700;51.796;10.956;2023-04-03T08:12:01;2.10;86.00
67901;DHT22;54700;51.796;10.956;2023-04-03T08:14:30;2.20;85.10
67901;DHT22;54700;51.796;10.956;2023-04-03T08:17:15;2.30;85.00
67901;DHT22;54700;51.796;10.956;2023-04-03T08:19:45;2.40;81.10
67901;DHT22;54700;51.796;10.956;2023-04-03T08:22:18;2.40;84.30
67901;DHT22;54700;51.796;10.956;2023-04-03T08:24:46;2.60;80.00
67901;DHT22;54700;51.796;10.956;2023-04-03T08:27:19;2.70;80.10
67901;DHT22;54700;51.796;10.956;2023-04-03T08:29:48;2.80;77.80
67901;DHT22;54700;51.796;10.956;2023-04-03T08:32:21;2.90;80.60
67901;DHT22;54700;51.796;10.956;2023-04-03T08:34:53;3.10;79.40
67901;DHT22;54700;51.796;10.956;2023-04-03T08:37:37;3.30;77.10
67901;DHT22;54700;51.796;10.956;2023-04-03T08:40:12;3.30;74.40
67901;DHT22;54700;51.796;10.956;2023-04-03T08:42:49;3.40;75.30
67901;DHT22;54700;51.796;10.956;2023-04-03T08:45:32;3.30;71.70
67901;DHT22;54700;51.796;10.956;2023-04-03T08:48:11;3.20;72.90
67901;DHT22;54700;51.796;10.956;2023-04-03T08:50:53;3.00;73.80
67901;DHT22;54700;51.796;10.956;2023-04-03T08:53:28;2.90;74.00
67901;DHT22;54700;51.796;10.956;2023-04-03T08:55:58;2.90;73.90
67901;DHT22;54700;51.796;10.956;2023-04-03T08:58:33;2.90;74.80
67901;DHT22;54700;51.796;10.956;2023-04-03T09:01:15;3.00;75.60
67901;DHT22;54700;51.796;10.956;2023-04-03T09:03:45;3.20;74.10
67901;DHT22;54700;51.796;10.956;2023-04-03T09:06:17;3.30;72.50
67901;DHT22;54700;51.796;10.956;2023-04-03T09:09:05;3.40;71.70
67901;DHT22;54700;51.796;10.956;2023-04-03T09:11:45;3.40;71.80
67901;DHT22;54700;51.796;10.956;2023-04-03T09:14:21;3.50;70.40
67901;DHT22;54700;51.796;10.956;2023-04-03T09:16:58;3.40;70.90
67901;DHT22;54700;51.796;10.956;2023-04-03T09:19:32;3.40;71.40
67901;DHT22;54700;51.796;10.956;2023-04-03T09:22:13;3.40;73.70
67901;DHT22;54700;51.796;10.956;2023-04-03T09:24:47;3.50;71.60
67901;DHT22;54700;51.796;10.956;2023-04-03T09:27:28;3.40;68.50
67901;DHT22;54700;51.796;10.956;2023-04-03T09:29:56;3.30;69.60
67901;DHT22;54700;51.796;10.956;2023-04-03T09:32:27;3.30;68.10
67901;DHT22;54700;51.796;10.956;2023-04-03T09:34:59;3.30;69.00
67901;DHT22;54700;51.796;10.956;2023-04-03T09:37:35;3.40;66.40
67901;DHT22;54700;51.796;10.956;2023-04-03T09:40:05;3.40;65.10
67901;DHT22;54700;51.796;10.956;2023-04-03T09:42:54;3.40;65.60
67901;DHT22;54700;51.796;10.956;2023-04-03T09:45:24;3.40;65.40
67901;DHT22;54700;51.796;10.956;2023-04-03T09:48:04;3.30;65.50
67901;DHT22;54700;51.796;10.956;2023-04-03T09:50:36;3.30;65.40
67901;DHT22;54700;51.796;10.956;2023-04-03T09:53:11;3.30;64.20
67901;DHT22;54700;51.796;10.956;2023-04-03T09:56:00;3.20;64.70
67901;DHT22;54700;51.796;10.956;2023-04-03T09:58:31;3.20;63.60
67901;DHT22;54700;51.796;10.956;2023-04-03T10:01:03;3.20;63.90
67901;DHT22;54700;51.796;10.956;2023-04-03T10:03:39;3.30;63.80
67901;DHT22;54700;51.796;10.956;2023-04-03T10:06:21;3.30;62.50
67901;DHT22;54700;51.796;10.956;2023-04-03T10:08:58;3.40;62.70
67901;DHT22;54700;51.796;10.956;2023-04-03T10:11:30;3.40;62.70
67901;DHT22;54700;51.796;10.956;2023-04-03T10:14:00;3.50;62.90
67901;DHT22;54700;51.796;10.956;2023-04-03T10:16:36;3.50;61.70
67901;DHT22;54700;51.796;10.956;2023-04-03T10:19:16;3.70;60.60
67901;DHT22;54700;51.796;10.956;2023-04-03T10:22:06;3.80;60.10
67901;DHT22;54700;51.796;10.956;2023-04-03T10:24:47;4.00;59.90
67901;DHT22;54700;51.796;10.956;2023-04-03T10:27:25;3.90;59.60
67901;DHT22;54700;51.796;10.956;2023-04-03T10:30:09;3.90;60.00
67901;DHT22;54700;51.796;10.956;2023-04-03T10:36:11;3.90;60.60
67901;DHT22;54700;51.796;10.956;2023-04-03T10:38:48;3.90;59.00
67901;DHT22;54700;51.796;10.956;2023-04-03T10:41:28;3.70;58.00
67901;DHT22;54700;51.796;10.956;2023-04-03T10:44:07;3.70;56.60
67901;DHT22;54700;51.796;10.956;2023-04-03T10:46:53;3.70;56.40
67901;DHT22;54700;51.796;10.956;2023-04-03T10:49:32;3.60;57.80
67901;DHT22;54700;51.796;10.956;2023-04-03T10:52:16;3.60;59.10
67901;DHT22;54700;51.796;10.956;2023-04-03T10:54:49;3.60;59.90
67901;DHT22;54700;51.796;10.956;2023-04-03T10:57:33;3.70;60.00
67901;DHT22;54700;51.796;10.956;2023-04-03T11:00:04;3.70;58.60
67901;DHT22;54700;51.796;10.956;2023-04-03T11:02:36;3.70;59.20
67901;DHT22;54700;51.796;10.956;2023-04-03T11:05:06;3.70;59.40
67901;DHT22;54700;51.796;10.956;2023-04-03T11:07:45;3.80;58.90
67901;DHT22;54700;51.796;10.956;2023-04-03T11:10:18;3.80;59.40
67901;DHT22;54700;51.796;10.956;2023-04-03T11:12:56;3.70;59.80
67901;DHT22;54700;51.796;10.956;2023-04-03T11:15:32;3.70;59.30
67901;DHT22;54700;51.796;10.956;2023-04-03T11:18:08;3.60;59.80
67901;DHT22;54700;51.796;10.956;2023-04-03T11:20:53;3.70;60.80
67901;DHT22;54700;51.796;10.956;2023-04-03T11:23:26;3.80;60.40
67901;DHT22;54700;51.796;10.956;2023-04-03T11:26:01;3.80;59.80
67901;DHT22;54700;51.796;10.956;2023-04-03T11:28:41;3.90;59.40
67901;DHT22;54700;51.796;10.956;2023-04-03T11:31:12;3.90;58.00
67901;DHT22;54700;51.796;10.956;2023-04-03T11:33:59;4.00;60.00
67901;DHT22;54700;51.796;10.956;2023-04-03T11:36:40;4.10;58.70
67901;DHT22;54700;51.796;10.956;2023-04-03T11:39:17;4.20;58.70
67901;DHT22;54700;51.796;10.956;2023-04-03T11:41:51;4.30;56.80
67901;DHT22;54700;51.796;10.956;2023-04-03T11:53:28;4.00;56.80
67901;DHT22;54700;51.796;10.956;2023-04-03T11:56:01;4.00;56.90
67901;DHT22;54700;51.796;10.956;2023-04-03T11:58:31;4.00;56.90
67901;DHT22;54700;51.796;10.956;2023-04-03T12:01:01;3.90;56.40
67901;DHT22;54700;51.796;10.956;2023-04-03T12:03:32;4.00;57.10
67901;DHT22;54700;51.796;10.956;2023-04-03T12:09:25;4.00;56.40
67901;DHT22;54700;51.796;10.956;2023-04-03T12:11:54;4.00;55.50
67901;DHT22;54700;51.796;10.956;2023-04-03T12:14:23;4.10;54.50
67901;DHT22;54700;51.796;10.956;2023-04-03T12:16:53;4.10;56.20
67901;DHT22;54700;51.796;10.956;2023-04-03T12:19:30;4.30;55.10
67901;DHT22;54700;51.796;10.956;2023-04-03T12:22:05;4.50;54.70
67901;DHT22;54700;51.796;10.956;2023-04-03T12:24:40;4.40;53.20
67901;DHT22;54700;51.796;10.956;2023-04-03T12:27:15;4.30;52.30
67901;DHT22;54700;51.796;10.956;2023-04-03T12:29:50;4.30;52.70
67901;DHT22;54700;51.796;10.956;2023-04-03T12:32:26;4.50;53.40
67901;DHT22;54700;51.796;10.956;2023-04-03T12:35:10;4.60;51.90
67901;DHT22;54700;51.796;10.956;2023-04-03T12:37:51;4.70;52.10
67901;DHT22;54700;51.796;10.956;2023-04-03T12:40:42;4.80;52.00
67901;DHT22;54700;51.796;10.956;2023-04-03T12:43:20;4.80;52.70
67901;DHT22;54700;51.796;10.956;2023-04-03T12:46:01;4.80;52.60
67901;DHT22;54700;51.796;10.956;2023-04-03T12:48:33;4.80;52.70
67901;DHT22;54700;51.796;10.956;2023-04-03T12:51:05;4.80;53.10
67901;DHT22;54700;51.796;10.956;2023-04-03T12:53:33;4.80;52.90
67901;DHT22;54700;51.796;10.956;2023-04-03T12:56:22;4.70;52.20
67901;DHT22;54700;51.796;10.956;2023-04-03T12:58:51;4.60;53.40
67901;DHT22;54700;51.796;10.956;2023-04-03T13:01:26;4.70;53.90
67901;DHT22;54700;51.796;10.956;2023-04-03T13:03:55;4.80;54.80
67901;DHT22;54700;51.796;10.956;2023-04-03T13:06:24;4.90;53.90
67901;DHT22;54700;51.796;10.956;2023-04-03T13:08:55;4.80;53.00
67901;DHT22;54700;51.796;10.956;2023-04-03T13:11:26;4.80;52.90
67901;DHT22;54700;51.796;10.956;2023-04-03T13:14:15;4.80;53.40
67901;DHT22;54700;51.796;10.956;2023-04-03T13:16:54;4.90;51.90
67901;DHT22;54700;51.796;10.956;2023-04-03T13:19:26;5.00;52.00
67901;DHT22;54700;51.796;10.956;2023-04-03T13:21:57;5.00;50.50
67901;DHT22;54700;51.796;10.956;2023-04-03T13:24:42;5.00;50.50
67901;DHT22;54700;51.796;10.956;2023-04-03T13:27:17;4.90;51.80
67901;DHT22;54700;51.796;10.956;2023-04-03T13:29:53;4.80;53.60
67901;DHT22;54700;51.796;10.956;2023-04-03T13:32:31;4.90;52.70
67901;DHT22;54700;51.796;10.956;2023-04-03T13:38:25;5.00;50.60
67901;DHT22;54700;51.796;10.956;2023-04-03T13:41:03;5.10;50.10
67901;DHT22;54700;51.796;10.956;2023-04-03T13:43:51;5.10;49.10
67901;DHT22;54700;51.796;10.956;2023-04-03T13:46:25;5.10;50.60
67901;DHT22;54700;51.796;10.956;2023-04-03T13:48:56;5.10;50.60
67901;DHT22;54700;51.796;10.956;2023-04-03T13:51:25;5.10;50.60
67901;DHT22;54700;51.796;10.956;2023-04-03T13:53:55;5.10;50.60
67901;DHT22;54700;51.796;10.956;2023-04-03T13:56:30;5.10;50.60
67901;DHT22;54700;51.796;10.956;2023-04-03T13:59:04;5.10;50.70
67901;DHT22;54700;51.796;10.956;2023-04-03T14:01:50;5.00;51.80
67901;DHT22;54700;51.796;10.956;2023-04-03T14:04:23;5.00;51.60
67901;DHT22;54700;51.796;10.956;2023-04-03T14:07:16;4.90;51.80
67901;DHT22;54700;51.796;10.956;2023-04-03T14:09:56;4.90;52.10
67901;DHT22;54700;51.796;10.956;2023-04-03T14:12:34;4.80;52.90
67901;DHT22;54700;51.796;10.956;2023-04-03T14:15:14;4.80;52.80
67901;DHT22;54700;51.796;10.956;2023-04-03T14:17:59;4.70;52.50
67901;DHT22;54700;51.796;10.956;2023-04-03T14:20:38;4.70;52.50
67901;DHT22;54700;51.796;10.956;2023-04-03T14:23:10;4.80;52.20
67901;DHT22;54700;51.796;10.956;2023-04-03T14:25:40;4.90;51.00
67901;DHT22;54700;51.796;10.956;2023-04-03T14:31:44;5.00;49.20
67901;DHT22;54700;51.796;10.956;2023-04-03T14:34:26;4.90;50.50
67901;DHT22;54700;51.796;10.956;2023-04-03T14:36:54;4.80;50.50
67901;DHT22;54700;51.796;10.956;2023-04-03T14:39:23;4.80;51.20
67901;DHT22;54700;51.796;10.956;2023-04-03T14:41:57;4.80;51.60
67901;DHT22;54700;51.796;10.956;2023-04-03T14:44:27;4.90;50.90
67901;DHT22;54700;51.796;10.956;2023-04-03T14:47:02;4.80;51.00
67901;DHT22;54700;51.796;10.956;2023-04-03T14:49:29;4.90;51.40
67901;DHT22;54700;51.796;10.956;2023-04-03T14:52:05;4.90;50.80
67901;DHT22;54700;51.796;10.956;2023-04-03T14:54:34;4.90;52.40
67901;DHT22;54700;51.796;10.956;2023-04-03T14:57:08;4.90;51.30
67901;DHT22;54700;51.796;10.956;2023-04-03T14:59:39;4.90;51.00
67901;DHT22;54700;51.796;10.956;2023-04-03T15:02:22;4.90;51.10
67901;DHT22;54700;51.796;10.956;2023-04-03T15:04:53;4.90;51.10
67901;DHT22;54700;51.796;10.956;2023-04-03T15:07:20;4.90;51.10
67901;DHT22;54700;51.796;10.956;2023-04-03T15:09:53;4.90;50.40
67901;DHT22;54700;51.796;10.956;2023-04-03T15:12:23;5.00;50.90
67901;DHT22;54700;51.796;10.956;2023-04-03T15:14:57;5.00;50.10
67901;DHT22;54700;51.796;10.956;2023-04-03T15:17:27;5.00;50.90
67901;DHT22;54700;51.796;10.956;2023-04-03T15:19:57;5.10;50.60
67901;DHT22;54700;51.796;10.956;2023-04-03T15:22:28;5.00;50.50
67901;DHT22;54700;51.796;10.956;2023-04-03T15:24:57;4.90;50.10
67901;DHT22;54700;51.796;10.956;2023-04-03T15:27:25;4.80;50.30
67901;DHT22;54700;51.796;10.956;2023-04-03T15:29:55;4.80;51.50
67901;DHT22;54700;51.796;10.956;2023-04-03T15:32:23;4.80;51.30
67901;DHT22;54700;51.796;10.956;2023-04-03T15:34:55;4.80;50.80
67901;DHT22;54700;51.796;10.956;2023-04-03T15:37:25;4.90;51.30
67901;DHT22;54700;51.796;10.956;2023-04-03T15:40:00;4.90;50.80
67901;DHT22;54700;51.796;10.956;2023-04-03T15:42:48;4.80;49.90
67901;DHT22;54700;51.796;10.956;2023-04-03T15:45:24;4.70;50.30
67901;DHT22;54700;51.796;10.956;2023-04-03T15:48:02;4.70;51.00
67901;DHT22;54700;51.796;10.956;2023-04-03T15:50:33;4.80;51.30
67901;DHT22;54700;51.796;10.956;2023-04-03T15:53:09;4.80;51.50
67901;DHT22;54700;51.796;10.956;2023-04-03T15:55:45;4.80;52.20
67901;DHT22;54700;51.796;10.956;2023-04-03T15:58:18;4.80;51.90
67901;DHT22;54700;51.796;10.956;2023-04-03T16:01:05;4.80;52.60
67901;DHT22;54700;51.796;10.956;2023-04-03T16:03:52;4.80;52.30
67901;DHT22;54700;51.796;10.956;2023-04-03T16:07:02;4.70;53.10
67901;DHT22;54700;51.796;10.956;2023-04-03T16:10:08;4.70;52.90
67901;DHT22;54700;51.796;10.956;2023-04-03T16:13:00;4.70;52.10
67901;DHT22;54700;51.796;10.956;2023-04-03T16:15:44;4.70;52.90
67901;DHT22;54700;51.796;10.956;2023-04-03T16:18:28;4.70;52.00
67901;DHT22;54700;51.796;10.956;2023-04-03T16:21:01;4.60;52.90
67901;DHT22;54700;51.796;10.956;2023-04-03T16:23:40;4.60;52.70
67901;DHT22;54700;51.796;10.956;2023-04-03T16:26:13;4.60;52.70
67901;DHT22;54700;51.796;10.956;2023-04-03T16:28:56;4.60;51.70
67901;DHT22;54700;51.796;10.956;2023-04-03T16:31:40;4.50;51.90
67901;DHT22;54700;51.796;10.956;2023-04-03T16:34:09;4.50;52.00
67901;DHT22;54700;51.796;10.956;2023-04-03T16:36:52;4.50;52.50
67901;DHT22;54700;51.796;10.956;2023-04-03T16:39:22;4.40;52.20